sensor_id;sensor_type;location;lat;lon;timestamp;temperature;humidity
4787;DHT22;62338;48.832;9.422;2023-07-30T00:00:06;16.10;99.90
4787;DHT22;62338;48.832;9.422;2023-07-30T00:02:08;16.00;99.90
4787;DHT22;62338;48.832;9.422;2023-07-30T00:04:10;16.00;99.90
4787;DHT22;62338;48.832;9.422;2023-07-30T00:06:12;16.00;99.90
4787;DHT22;62338;48.832;9.422;2023-07-30T00:08:13;15.90;99.90
4787;DHT22;62338;48.832;9.422;2023-07-30T00:10:15;15.80;99.90
4787;DHT22;62338;48.832;9.422;2023-07-30T00:12:17;15.70;99.90
4787;DHT22;62338;48.832;9.422;2023-07-30T00:14:19;15.50;99.90
4787;DHT22;62338;48.832;9.422;2023-07-30T00:16:21;15.40;99.90
4787;DHT22;62338;48.832;9.422;2023-07-30T00:18:22;15.30;99.90
4787;DHT22;62338;48.832;9.422;2023-07-30T00:20:24;15.20;99.90
4787;DHT22;62338;48.832;9.422;2023-07-30T00:22:28;15.10;99.90
4787;DHT22;62338;48.832;9.422;2023-07-30T00:24:30;15.10;99.90
4787;DHT22;62338;48.832;9.422;2023-07-30T00:26:31;15.10;99.90
4787;DHT22;62338;48.832;9.422;2023-07-30T00:28:33;15.00;99.90
4787;DHT22;62338;48.832;9.422;2023-07-30T00:30:35;14.90;99.90
4787;DHT22;62338;48.832;9.422;2023-07-30T00:32:37;14.90;99.90
4787;DHT22;62338;48.832;9.422;2023-07-30T00:34:45;14.80;99.90
4787;DHT22;62338;48.832;9.422;2023-07-30T00:36:47;14.80;99.90
4787;DHT22;62338;48.832;9.422;2023-07-30T00:38:49;14.80;99.90
4787;DHT22;62338;48.832;9.422;2023-07-30T00:40:50;14.90;99.90
4787;DHT22;62338;48.832;9.422;2023-07-30T00:42:52;14.80;99.90
4787;DHT22;62338;48.832;9.422;2023-07-30T00:44:54;14.70;99.90
4787;DHT22;62338;48.832;9.422;2023-07-30T00:46:56;14.70;99.90
4787;DHT22;62338;48.832;9.422;2023-07-30T00:48:58;14.70;99.90
4787;DHT22;62338;48.832;9.422;2023-07-30T00:51:00;14.70;99.90
4787;DHT22;62338;48.832;9.422;2023-07-30T00:53:02;14.70;99.90
4787;DHT22;62338;48.832;9.422;2023-07-30T00:55:04;14.80;99.90
4787;DHT22;62338;48.832;9.422;2023-07-30T00:57:09;14.80;99.90
4787;DHT22;62338;48.832;9.422;2023-07-30T00:59:11;14.90;99.90
4787;DHT22;62338;48.832;9.422;2023-07-30T01:01:13;14.90;99.90
4787;DHT22;62338;48.832;9.422;2023-07-30T01:03:15;15.00;99.90
4787;DHT22;62338;48.832;9.422;2023-07-30T01:05:17;15.20;99.90
4787;DHT22;62338;48.832;9.422;2023-07-30T01:07:19;15.30;99.90
4787;DHT22;62338;48.832;9.422;2023-07-30T01:09:21;15.40;99.90
4787;DHT22;62338;48.832;9.422;2023-07-30T01:11:23;15.50;99.90
4787;DHT22;62338;48.832;9.422;2023-07-30T01:13:27;15.50;99.90
4787;DHT22;62338;48.832;9.422;2023-07-30T01:15:30;15.60;99.90
4787;DHT22;62338;48.832;9.422;2023-07-30T01:17:32;15.70;99.90
4787;DHT22;62338;48.832;9.422;2023-07-30T01:19:34;15.80;99.90
4787;DHT22;62338;48.832;9.422;2023-07-30T01:21:37;15.90;99.90
4787;DHT22;62338;48.832;9.422;2023-07-30T01:23:39;15.90;99.90
4787;DHT22;62338;48.832;9.422;2023-07-30T01:25:42;15.90;99.90
4787;DHT22;62338;48.832;9.422;2023-07-30T01:27:52;15.90;99.90
4787;DHT22;62338;48.832;9.422;2023-07-30T01:32:08;16.00;99.90
4787;DHT22;62338;48.832;9.422;2023-07-30T01:34:11;16.00;99.90
4787;DHT22;62338;48.832;9.422;2023-07-30T01:36:15;16.10;99.90
4787;DHT22;62338;48.832;9.422;2023-07-30T01:38:18;16.10;99.90
4787;DHT22;62338;48.832;9.422;2023-07-30T01:40:20;16.10;99.90
4787;DHT22;62338;48.832;9.422;2023-07-30T01:42:28;16.10;99.90
4787;DHT22;62338;48.832;9.422;2023-07-30T01:44:30;16.10;99.90
4787;DHT22;62338;48.832;9.422;2023-07-30T01:46:32;16.20;99.90
4787;DHT22;62338;48.832;9.422;2023-07-30T01:48:34;16.20;99.90
4787;DHT22;62338;48.832;9.422;2023-07-30T01:50:35;16.20;99.90
4787;DHT22;62338;48.832;9.422;2023-07-30T01:52:37;16.20;99.90
4787;DHT22;62338;48.832;9.422;2023-07-30T01:54:39;16.20;99.90
4787;DHT22;62338;48.832;9.422;2023-07-30T01:56:40;16.30;99.90
4787;DHT22;62338;48.832;9.422;2023-07-30T01:58:42;16.30;99.90
4787;DHT22;62338;48.832;9.422;2023-07-30T02:00:44;16.20;99.90
4787;DHT22;62338;48.832;9.422;2023-07-30T02:02:46;16.20;99.90
4787;DHT22;62338;48.832;9.422;2023-07-30T02:04:48;16.30;99.90
4787;DHT22;62338;48.832;9.422;2023-07-30T02:06:50;16.20;99.90
4787;DHT22;62338;48.832;9.422;2023-07-30T02:08:52;16.30;99.90
4787;DHT22;62338;48.832;9.422;2023-07-30T02:10:57;16.30;99.90
4787;DHT22;62338;48.832;9.422;2023-07-30T02:12:59;16.30;99.90
4787;DHT22;62338;48.832;9.422;2023-07-30T02:15:01;16.30;99.90
4787;DHT22;62338;48.832;9.422;2023-07-30T02:17:03;16.30;99.90
4787;DHT22;62338;48.832;9.422;2023-07-30T02:19:05;16.30;99.90
4787;DHT22;62338;48.832;9.422;2023-07-30T02:21:07;16.30;99.90
4787;DHT22;62338;48.832;9.422;2023-07-30T02:23:08;16.20;99.90
4787;DHT22;62338;48.832;9.422;2023-07-30T02:25:10;16.20;99.90
4787;DHT22;62338;48.832;9.422;2023-07-30T02:27:12;16.20;99.90
4787;DHT22;62338;48.832;9.422;2023-07-30T02:29:13;16.30;99.90
4787;DHT22;62338;48.832;9.422;2023-07-30T02:31:15;16.30;99.90
4787;DHT22;62338;48.832;9.422;2023-07-30T02:33:17;16.30;99.90
4787;DHT22;62338;48.832;9.422;2023-07-30T02:35:19;16.30;99.90
4787;DHT22;62338;48.832;9.422;2023-07-30T02:37:21;16.30;99.90
4787;DHT22;62338;48.832;9.422;2023-07-30T02:39:22;16.30;99.90
4787;DHT22;62338;48.832;9.422;2023-07-30T02:41:24;16.30;99.90
4787;DHT22;62338;48.832;9.422;2023-07-30T02:43:26;16.30;99.90
4787;DHT22;62338;48.832;9.422;2023-07-30T02:45:27;16.40;99.90
4787;DHT22;62338;48.832;9.422;2023-07-30T02:47:29;16.40;99.90
4787;DHT22;62338;48.832;9.422;2023-07-30T02:49:31;16.30;99.90
4787;DHT22;62338;48.832;9.422;2023-07-30T02:51:33;16.30;99.90
4787;DHT22;62338;48.832;9.422;2023-07-30T02:53:35;16.30;99.90
4787;DHT22;62338;48.832;9.422;2023-07-30T02:55:36;16.20;99.90
4787;DHT22;62338;48.832;9.422;2023-07-30T02:57:38;16.20;99.90
4787;DHT22;62338;48.832;9.422;2023-07-30T02:59:40;16.20;99.90
4787;DHT22;62338;48.832;9.422;2023-07-30T03:01:42;16.20;99.90
4787;DHT22;62338;48.832;9.422;2023-07-30T03:03:44;16.20;99.90
4787;DHT22;62338;48.832;9.422;2023-07-30T03:05:46;16.20;99.90
4787;DHT22;62338;48.832;9.422;2023-07-30T03:07:47;16.20;99.90
4787;DHT22;62338;48.832;9.422;2023-07-30T03:09:49;16.30;99.90
4787;DHT22;62338;48.832;9.422;2023-07-30T03:11:51;16.20;99.90
4787;DHT22;62338;48.832;9.422;2023-07-30T03:13:53;16.30;99.90
4787;DHT22;62338;48.832;9.422;2023-07-30T03:15:55;16.30;99.90
4787;DHT22;62338;48.832;9.422;2023-07-30T03:17:57;16.30;99.90
4787;DHT22;62338;48.832;9.422;2023-07-30T03:19:58;16.30;99.90
4787;DHT22;62338;48.832;9.422;2023-07-30T03:22:00;16.30;99.90
4787;DHT22;62338;48.832;9.422;2023-07-30T03:24:02;16.30;99.90
4787;DHT22;62338;48.832;9.422;2023-07-30T03:26:04;16.30;99.90
4787;DHT22;62338;48.832;9.422;2023-07-30T03:28:06;16.30;99.90
4787;DHT22;62338;48.832;9.422;2023-07-30T03:30:08;16.30;99.90
4787;DHT22;62338;48.832;9.422;2023-07-30T03:32:10;16.30;99.90
4787;DHT22;62338;48.832;9.422;2023-07-30T03:34:12;16.30;99.90
4787;DHT22;62338;48.832;9.422;2023-07-30T03:36:14;16.30;99.90
4787;DHT22;62338;48.832;9.422;2023-07-30T03:38:16;16.30;99.90
4787;DHT22;62338;48.832;9.422;2023-07-30T03:40:18;16.30;99.90
4787;DHT22;62338;48.832;9.422;2023-07-30T03:42:19;16.20;99.90
4787;DHT22;62338;48.832;9.422;2023-07-30T03:44:21;16.20;99.90
4787;DHT22;62338;48.832;9.422;2023-07-30T03:46:23;16.20;99.90
4787;DHT22;62338;48.832;9.422;2023-07-30T03:48:25;16.20;99.90
4787;DHT22;62338;48.832;9.422;2023-07-30T03:50:26;16.20;99.90
4787;DHT22;62338;48.832;9.422;2023-07-30T03:52:28;16.20;99.90
4787;DHT22;62338;48.832;9.422;2023-07-30T03:54:30;16.20;99.90
4787;DHT22;62338;48.832;9.422;2023-07-30T03:56:32;16.10;99.90
4787;DHT22;62338;48.832;9.422;2023-07-30T03:58:33;16.10;99.90
4787;DHT22;62338;48.832;9.422;2023-07-30T04:00:35;16.10;99.90
4787;DHT22;62338;48.832;9.422;2023-07-30T04:02:37;16.00;99.90
4787;DHT22;62338;48.832;9.422;2023-07-30T04:04:39;16.00;99.90
4787;DHT22;62338;48.832;9.422;2023-07-30T04:06:41;16.00;99.90
4787;DHT22;62338;48.832;9.422;2023-07-30T04:08:43;16.00;99.90
4787;DHT22;62338;48.832;9.422;2023-07-30T04:10:44;16.00;99.90
4787;DHT22;62338;48.832;9.422;2023-07-30T04:12:46;16.10;99.90
4787;DHT22;62338;48.832;9.422;2023-07-30T04:14:48;16.10;99.90
4787;DHT22;62338;48.832;9.422;2023-07-30T04:16:50;16.10;99.90
4787;DHT22;62338;48.832;9.422;2023-07-30T04:18:51;16.20;99.90
4787;DHT22;62338;48.832;9.422;2023-07-30T04:20:56;16.30;99.90
4787;DHT22;62338;48.832;9.422;2023-07-30T04:22:58;16.30;99.90
4787;DHT22;62338;48.832;9.422;2023-07-30T04:25:00;16.40;99.90
4787;DHT22;62338;48.832;9.422;2023-07-30T04:27:02;16.40;99.90
4787;DHT22;62338;48.832;9.422;2023-07-30T04:29:04;16.50;99.90
4787;DHT22;62338;48.832;9.422;2023-07-30T04:31:06;16.50;99.90
4787;DHT22;62338;48.832;9.422;2023-07-30T04:33:08;16.50;99.90
4787;DHT22;62338;48.832;9.422;2023-07-30T04:35:10;16.60;99.90
4787;DHT22;62338;48.832;9.422;2023-07-30T04:37:13;16.60;99.90
4787;DHT22;62338;48.832;9.422;2023-07-30T04:39:14;16.60;99.90
4787;DHT22;62338;48.832;9.422;2023-07-30T04:41:16;16.60;99.90
4787;DHT22;62338;48.832;9.422;2023-07-30T04:43:20;16.60;99.90
4787;DHT22;62338;48.832;9.422;2023-07-30T04:45:22;16.60;99.90
4787;DHT22;62338;48.832;9.422;2023-07-30T04:47:23;16.60;99.90
4787;DHT22;62338;48.832;9.422;2023-07-30T04:49:25;16.50;99.90
4787;DHT22;62338;48.832;9.422;2023-07-30T04:51:27;16.50;99.90
4787;DHT22;62338;48.832;9.422;2023-07-30T04:53:29;16.50;99.90
4787;DHT22;62338;48.832;9.422;2023-07-30T04:55:31;16.50;99.90
4787;DHT22;62338;48.832;9.422;2023-07-30T04:57:34;16.40;99.90
4787;DHT22;62338;48.832;9.422;2023-07-30T04:59:36;16.40;99.90
4787;DHT22;62338;48.832;9.422;2023-07-30T05:01:38;16.40;99.90
4787;DHT22;62338;48.832;9.422;2023-07-30T05:03:40;16.40;99.90
4787;DHT22;62338;48.832;9.422;2023-07-30T05:05:42;16.40;99.90
4787;DHT22;62338;48.832;9.422;2023-07-30T05:07:44;16.40;99.90
4787;DHT22;62338;48.832;9.422;2023-07-30T05:09:46;16.40;99.90
4787;DHT22;62338;48.832;9.422;2023-07-30T05:11:47;16.40;99.90
4787;DHT22;62338;48.832;9.422;2023-07-30T05:13:49;16.40;99.90
4787;DHT22;62338;48.832;9.422;2023-07-30T05:15:51;16.40;99.90
4787;DHT22;62338;48.832;9.422;2023-07-30T05:17:53;16.40;99.90
4787;DHT22;62338;48.832;9.422;2023-07-30T05:19:55;16.40;99.90
4787;DHT22;62338;48.832;9.422;2023-07-30T05:21:56;16.40;99.90
4787;DHT22;62338;48.832;9.422;2023-07-30T05:23:58;16.50;99.90
4787;DHT22;62338;48.832;9.422;2023-07-30T05:26:00;16.50;99.90
4787;DHT22;62338;48.832;9.422;2023-07-30T05:28:02;16.50;99.90
4787;DHT22;62338;48.832;9.422;2023-07-30T05:30:04;16.50;99.90
4787;DHT22;62338;48.832;9.422;2023-07-30T05:32:06;16.50;99.90
4787;DHT22;62338;48.832;9.422;2023-07-30T05:34:08;16.50;99.90
4787;DHT22;62338;48.832;9.422;2023-07-30T05:36:10;16.50;99.90
4787;DHT22;62338;48.832;9.422;2023-07-30T05:38:12;16.50;99.90
4787;DHT22;62338;48.832;9.422;2023-07-30T05:40:14;16.50;99.90
4787;DHT22;62338;48.832;9.422;2023-07-30T05:42:16;16.50;99.90
4787;DHT22;62338;48.832;9.422;2023-07-30T05:44:17;16.50;99.90
4787;DHT22;62338;48.832;9.422;2023-07-30T05:46:19;16.40;99.90
4787;DHT22;62338;48.832;9.422;2023-07-30T05:48:21;16.30;99.90
4787;DHT22;62338;48.832;9.422;2023-07-30T05:50:23;16.30;99.90
4787;DHT22;62338;48.832;9.422;2023-07-30T05:52:25;16.30;99.90
4787;DHT22;62338;48.832;9.422;2023-07-30T05:54:26;16.30;99.90
4787;DHT22;62338;48.832;9.422;2023-07-30T05:56:28;16.30;99.90
4787;DHT22;62338;48.832;9.422;2023-07-30T05:58:30;16.40;99.90
4787;DHT22;62338;48.832;9.422;2023-07-30T06:00:32;16.40;99.90
4787;DHT22;62338;48.832;9.422;2023-07-30T06:02:34;16.50;99.90
4787;DHT22;62338;48.832;9.422;2023-07-30T06:04:36;16.60;99.90
4787;DHT22;62338;48.832;9.422;2023-07-30T06:06:37;16.50;99.90
4787;DHT22;62338;48.832;9.422;2023-07-30T06:08:39;16.50;99.90
4787;DHT22;62338;48.832;9.422;2023-07-30T06:10:41;16.60;99.90
4787;DHT22;62338;48.832;9.422;2023-07-30T06:12:43;16.60;99.90
4787;DHT22;62338;48.832;9.422;2023-07-30T06:14:44;16.50;99.90
4787;DHT22;62338;48.832;9.422;2023-07-30T06:16:46;16.60;99.90
4787;DHT22;62338;48.832;9.422;2023-07-30T06:18:48;16.60;99.90
4787;DHT22;62338;48.832;9.422;2023-07-30T06:20:50;16.70;99.90
4787;DHT22;62338;48.832;9.422;2023-07-30T06:22:52;16.70;99.90
4787;DHT22;62338;48.832;9.422;2023-07-30T06:24:53;16.80;99.90
4787;DHT22;62338;48.832;9.422;2023-07-30T06:26:55;16.80;99.90
4787;DHT22;62338;48.832;9.422;2023-07-30T06:28:57;16.90;99.90
4787;DHT22;62338;48.832;9.422;2023-07-30T06:31:02;17.10;99.90
4787;DHT22;62338;48.832;9.422;2023-07-30T06:33:04;17.20;99.90
4787;DHT22;62338;48.832;9.422;2023-07-30T06:35:06;17.30;99.90
4787;DHT22;62338;48.832;9.422;2023-07-30T06:37:08;17.40;99.90
4787;DHT22;62338;48.832;9.422;2023-07-30T06:39:10;17.40;99.90
4787;DHT22;62338;48.832;9.422;2023-07-30T06:41:11;17.30;99.90
4787;DHT22;62338;48.832;9.422;2023-07-30T06:43:13;17.20;99.90
4787;DHT22;62338;48.832;9.422;2023-07-30T06:45:15;17.20;99.90
4787;DHT22;62338;48.832;9.422;2023-07-30T06:47:17;17.20;99.90
4787;DHT22;62338;48.832;9.422;2023-07-30T06:49:19;17.30;99.90
4787;DHT22;62338;48.832;9.422;2023-07-30T06:51:24;17.40;99.90
4787;DHT22;62338;48.832;9.422;2023-07-30T06:53:26;17.50;99.90
4787;DHT22;62338;48.832;9.422;2023-07-30T06:55:27;17.70;99.90
4787;DHT22;62338;48.832;9.422;2023-07-30T06:57:30;17.70;99.90
4787;DHT22;62338;48.832;9.422;2023-07-30T06:59:33;17.80;99.90
4787;DHT22;62338;48.832;9.422;2023-07-30T07:01:34;18.10;99.90
4787;DHT22;62338;48.832;9.422;2023-07-30T07:03:37;18.40;99.90
4787;DHT22;62338;48.832;9.422;2023-07-30T07:05:38;18.80;99.90
4787;DHT22;62338;48.832;9.422;2023-07-30T07:07:44;19.20;99.90
4787;DHT22;62338;48.832;9.422;2023-07-30T07:09:46;19.30;99.90
4787;DHT22;62338;48.832;9.422;2023-07-30T07:11:48;19.10;99.90
4787;DHT22;62338;48.832;9.422;2023-07-30T07:13:50;19.30;99.90
4787;DHT22;62338;48.832;9.422;2023-07-30T07:15:52;19.60;99.90
4787;DHT22;62338;48.832;9.422;2023-07-30T07:17:54;20.60;99.90
4787;DHT22;62338;48.832;9.422;2023-07-30T07:19:57;21.00;99.90
4787;DHT22;62338;48.832;9.422;2023-07-30T07:21:59;21.00;99.90
4787;DHT22;62338;48.832;9.422;2023-07-30T07:24:00;20.50;99.90
4787;DHT22;62338;48.832;9.422;2023-07-30T07:26:02;19.90;99.90
4787;DHT22;62338;48.832;9.422;2023-07-30T07:28:04;19.40;99.90
4787;DHT22;62338;48.832;9.422;2023-07-30T07:30:06;18.90;99.90
4787;DHT22;62338;48.832;9.422;2023-07-30T07:32:08;18.50;99.90
4787;DHT22;62338;48.832;9.422;2023-07-30T07:34:10;18.20;99.90
4787;DHT22;62338;48.832;9.422;2023-07-30T07:36:12;18.00;99.90
4787;DHT22;62338;48.832;9.422;2023-07-30T07:38:15;17.90;99.90
4787;DHT22;62338;48.832;9.422;2023-07-30T07:40:17;17.80;99.90
4787;DHT22;62338;48.832;9.422;2023-07-30T07:42:19;17.80;99.90
4787;DHT22;62338;48.832;9.422;2023-07-30T07:44:21;17.70;99.90
4787;DHT22;62338;48.832;9.422;2023-07-30T07:46:24;17.60;99.90
4787;DHT22;62338;48.832;9.422;2023-07-30T07:48:28;17.50;99.90
4787;DHT22;62338;48.832;9.422;2023-07-30T07:50:29;17.50;99.90
4787;DHT22;62338;48.832;9.422;2023-07-30T07:52:31;17.50;99.90
4787;DHT22;62338;48.832;9.422;2023-07-30T07:54:33;17.50;99.90
4787;DHT22;62338;48.832;9.422;2023-07-30T07:56:35;17.50;99.90
4787;DHT22;62338;48.832;9.422;2023-07-30T07:58:37;17.50;99.90
4787;DHT22;62338;48.832;9.422;2023-07-30T08:00:38;17.40;99.90
4787;DHT22;62338;48.832;9.422;2023-07-30T08:02:40;17.30;99.90
4787;DHT22;62338;48.832;9.422;2023-07-30T08:04:42;17.20;99.90
4787;DHT22;62338;48.832;9.422;2023-07-30T08:06:44;17.00;99.90
4787;DHT22;62338;48.832;9.422;2023-07-30T08:08:46;16.80;99.90
4787;DHT22;62338;48.832;9.422;2023-07-30T08:10:48;16.80;99.90
4787;DHT22;62338;48.832;9.422;2023-07-30T08:12:49;16.80;99.90
4787;DHT22;62338;48.832;9.422;2023-07-30T08:14:51;17.00;99.90
4787;DHT22;62338;48.832;9.422;2023-07-30T08:16:53;17.10;99.90
4787;DHT22;62338;48.832;9.422;2023-07-30T08:18:55;17.50;99.90
4787;DHT22;62338;48.832;9.422;2023-07-30T08:20:57;17.70;99.90
4787;DHT22;62338;48.832;9.422;2023-07-30T08:22:59;17.90;99.90
4787;DHT22;62338;48.832;9.422;2023-07-30T08:25:01;17.90;99.90
4787;DHT22;62338;48.832;9.422;2023-07-30T08:27:04;17.90;99.90
4787;DHT22;62338;48.832;9.422;2023-07-30T08:29:05;17.70;99.90
4787;DHT22;62338;48.832;9.422;2023-07-30T08:31:07;17.50;99.90
4787;DHT22;62338;48.832;9.422;2023-07-30T08:33:09;17.40;99.90
4787;DHT22;62338;48.832;9.422;2023-07-30T08:35:11;17.30;99.90
4787;DHT22;62338;48.832;9.422;2023-07-30T08:37:13;17.30;99.90
4787;DHT22;62338;48.832;9.422;2023-07-30T08:39:14;17.20;99.90
4787;DHT22;62338;48.832;9.422;2023-07-30T08:41:16;17.20;99.90
4787;DHT22;62338;48.832;9.422;2023-07-30T08:43:19;17.40;99.90
4787;DHT22;62338;48.832;9.422;2023-07-30T08:45:20;17.50;99.90
4787;DHT22;62338;48.832;9.422;2023-07-30T08:47:22;17.70;99.90
4787;DHT22;62338;48.832;9.422;2023-07-30T08:49:25;18.00;99.90
4787;DHT22;62338;48.832;9.422;2023-07-30T08:51:27;18.20;99.90
4787;DHT22;62338;48.832;9.422;2023-07-30T08:53:29;18.40;99.90
4787;DHT22;62338;48.832;9.422;2023-07-30T08:55:34;18.70;99.90
4787;DHT22;62338;48.832;9.422;2023-07-30T08:57:36;18.70;99.90
4787;DHT22;62338;48.832;9.422;2023-07-30T08:59:45;18.90;99.90
4787;DHT22;62338;48.832;9.422;2023-07-30T09:01:51;19.20;99.90
4787;DHT22;62338;48.832;9.422;2023-07-30T09:03:53;19.40;99.90
4787;DHT22;62338;48.832;9.422;2023-07-30T09:05:55;19.70;99.90
4787;DHT22;62338;48.832;9.422;2023-07-30T09:07:57;19.80;99.90
4787;DHT22;62338;48.832;9.422;2023-07-30T09:09:59;19.80;99.90
4787;DHT22;62338;48.832;9.422;2023-07-30T09:12:01;19.90;99.90
4787;DHT22;62338;48.832;9.422;2023-07-30T09:14:05;19.80;99.90
4787;DHT22;62338;48.832;9.422;2023-07-30T09:16:11;19.90;99.90
4787;DHT22;62338;48.832;9.422;2023-07-30T09:18:16;19.80;99.90
4787;DHT22;62338;48.832;9.422;2023-07-30T09:20:19;19.80;99.90
4787;DHT22;62338;48.832;9.422;2023-07-30T09:22:28;19.70;99.90
4787;DHT22;62338;48.832;9.422;2023-07-30T09:24:30;19.20;99.90
4787;DHT22;62338;48.832;9.422;2023-07-30T09:26:45;18.80;99.90
4787;DHT22;62338;48.832;9.422;2023-07-30T09:28:47;18.60;99.90
4787;DHT22;62338;48.832;9.422;2023-07-30T09:30:49;18.50;99.90
4787;DHT22;62338;48.832;9.422;2023-07-30T09:32:54;18.30;99.90
4787;DHT22;62338;48.832;9.422;2023-07-30T09:35:07;18.20;99.90
4787;DHT22;62338;48.832;9.422;2023-07-30T09:37:09;18.40;99.90
4787;DHT22;62338;48.832;9.422;2023-07-30T09:39:24;18.30;99.90
4787;DHT22;62338;48.832;9.422;2023-07-30T09:41:27;18.30;99.90
4787;DHT22;62338;48.832;9.422;2023-07-30T09:43:33;18.30;99.90
4787;DHT22;62338;48.832;9.422;2023-07-30T09:45:36;18.40;99.90
4787;DHT22;62338;48.832;9.422;2023-07-30T09:47:38;18.60;99.90
4787;DHT22;62338;48.832;9.422;2023-07-30T09:49:40;18.60;99.90
4787;DHT22;62338;48.832;9.422;2023-07-30T09:51:42;18.60;99.90
4787;DHT22;62338;48.832;9.422;2023-07-30T09:53:44;18.60;99.90
4787;DHT22;62338;48.832;9.422;2023-07-30T09:55:46;18.50;99.90
4787;DHT22;62338;48.832;9.422;2023-07-30T09:57:48;18.40;99.90
4787;DHT22;62338;48.832;9.422;2023-07-30T09:59:49;18.20;99.90
4787;DHT22;62338;48.832;9.422;2023-07-30T10:01:52;18.20;99.90
4787;DHT22;62338;48.832;9.422;2023-07-30T10:03:57;18.20;99.90
4787;DHT22;62338;48.832;9.422;2023-07-30T10:06:03;18.30;99.90
4787;DHT22;62338;48.832;9.422;2023-07-30T10:08:15;18.40;99.90
4787;DHT22;62338;48.832;9.422;2023-07-30T10:10:18;18.40;99.90
4787;DHT22;62338;48.832;9.422;2023-07-30T10:12:25;18.40;99.90
4787;DHT22;62338;48.832;9.422;2023-07-30T10:14:29;18.40;99.90
4787;DHT22;62338;48.832;9.422;2023-07-30T10:16:31;18.50;99.90
4787;DHT22;62338;48.832;9.422;2023-07-30T10:18:40;18.70;99.90
4787;DHT22;62338;48.832;9.422;2023-07-30T10:20:51;18.60;99.90
4787;DHT22;62338;48.832;9.422;2023-07-30T10:22:55;18.70;99.90
4787;DHT22;62338;48.832;9.422;2023-07-30T10:24:59;18.80;99.90
4787;DHT22;62338;48.832;9.422;2023-07-30T10:27:06;19.10;99.90
4787;DHT22;62338;48.832;9.422;2023-07-30T10:29:16;19.50;99.90
4787;DHT22;62338;48.832;9.422;2023-07-30T10:31:18;19.50;99.90
4787;DHT22;62338;48.832;9.422;2023-07-30T10:33:20;19.60;99.90
4787;DHT22;62338;48.832;9.422;2023-07-30T10:35:44;19.90;99.90
4787;DHT22;62338;48.832;9.422;2023-07-30T10:37:47;20.10;99.90
4787;DHT22;62338;48.832;9.422;2023-07-30T10:39:50;20.80;99.90
4787;DHT22;62338;48.832;9.422;2023-07-30T10:41:55;21.70;99.90
4787;DHT22;62338;48.832;9.422;2023-07-30T10:43:59;22.50;99.90
4787;DHT22;62338;48.832;9.422;2023-07-30T10:46:01;23.10;99.90
4787;DHT22;62338;48.832;9.422;2023-07-30T10:48:06;23.30;99.90
4787;DHT22;62338;48.832;9.422;2023-07-30T10:50:08;23.50;99.90
4787;DHT22;62338;48.832;9.422;2023-07-30T10:52:13;23.70;99.90
4787;DHT22;62338;48.832;9.422;2023-07-30T10:54:15;24.00;99.90
4787;DHT22;62338;48.832;9.422;2023-07-30T10:56:22;23.50;99.90
4787;DHT22;62338;48.832;9.422;2023-07-30T10:58:29;22.70;99.90
4787;DHT22;62338;48.832;9.422;2023-07-30T11:00:32;22.80;99.90
4787;DHT22;62338;48.832;9.422;2023-07-30T11:02:42;22.70;99.90
4787;DHT22;62338;48.832;9.422;2023-07-30T11:04:44;23.10;99.90
4787;DHT22;62338;48.832;9.422;2023-07-30T11:06:47;23.70;99.90
4787;DHT22;62338;48.832;9.422;2023-07-30T11:08:50;24.20;99.90
4787;DHT22;62338;48.832;9.422;2023-07-30T11:10:52;24.10;99.90
4787;DHT22;62338;48.832;9.422;2023-07-30T11:12:54;24.60;99.90
4787;DHT22;62338;48.832;9.422;2023-07-30T11:15:03;24.70;99.90
4787;DHT22;62338;48.832;9.422;2023-07-30T11:17:05;24.60;99.90
4787;DHT22;62338;48.832;9.422;2023-07-30T11:19:09;24.80;99.90
4787;DHT22;62338;48.832;9.422;2023-07-30T11:21:15;24.50;99.90
4787;DHT22;62338;48.832;9.422;2023-07-30T11:23:22;23.90;99.90
4787;DHT22;62338;48.832;9.422;2023-07-30T11:25:23;23.20;99.90
4787;DHT22;62338;48.832;9.422;2023-07-30T11:27:25;22.20;99.90
4787;DHT22;62338;48.832;9.422;2023-07-30T11:29:27;21.70;99.90
4787;DHT22;62338;48.832;9.422;2023-07-30T11:31:29;21.50;99.90
4787;DHT22;62338;48.832;9.422;2023-07-30T11:33:31;21.50;99.90
4787;DHT22;62338;48.832;9.422;2023-07-30T11:35:33;21.10;99.90
4787;DHT22;62338;48.832;9.422;2023-07-30T11:37:35;20.80;99.90
4787;DHT22;62338;48.832;9.422;2023-07-30T11:39:41;20.50;99.90
4787;DHT22;62338;48.832;9.422;2023-07-30T11:41:45;20.00;99.90
4787;DHT22;62338;48.832;9.422;2023-07-30T11:43:47;19.60;99.90
4787;DHT22;62338;48.832;9.422;2023-07-30T11:46:11;19.20;99.90
4787;DHT22;62338;48.832;9.422;2023-07-30T11:48:13;18.90;99.90
4787;DHT22;62338;48.832;9.422;2023-07-30T11:50:16;18.90;99.90
4787;DHT22;62338;48.832;9.422;2023-07-30T11:52:18;18.80;99.90
4787;DHT22;62338;48.832;9.422;2023-07-30T11:54:21;18.90;99.90
4787;DHT22;62338;48.832;9.422;2023-07-30T11:56:33;18.90;99.90
4787;DHT22;62338;48.832;9.422;2023-07-30T11:58:35;19.00;99.90
4787;DHT22;62338;48.832;9.422;2023-07-30T12:00:41;20.00;99.90
4787;DHT22;62338;48.832;9.422;2023-07-30T12:02:44;20.80;99.90
4787;DHT22;62338;48.832;9.422;2023-07-30T12:04:47;21.40;99.90
4787;DHT22;62338;48.832;9.422;2023-07-30T12:07:04;22.10;99.90
4787;DHT22;62338;48.832;9.422;2023-07-30T12:11:19;22.30;99.90
4787;DHT22;62338;48.832;9.422;2023-07-30T12:13:24;22.10;99.90
4787;DHT22;62338;48.832;9.422;2023-07-30T12:15:26;21.70;99.90
4787;DHT22;62338;48.832;9.422;2023-07-30T12:17:30;21.90;99.90
4787;DHT22;62338;48.832;9.422;2023-07-30T12:19:32;22.30;99.90
4787;DHT22;62338;48.832;9.422;2023-07-30T12:21:34;22.60;99.90
4787;DHT22;62338;48.832;9.422;2023-07-30T12:23:39;22.90;99.90
4787;DHT22;62338;48.832;9.422;2023-07-30T12:25:41;22.70;99.90
4787;DHT22;62338;48.832;9.422;2023-07-30T12:27:43;23.20;99.90
4787;DHT22;62338;48.832;9.422;2023-07-30T12:29:45;23.80;99.90
4787;DHT22;62338;48.832;9.422;2023-07-30T12:31:47;24.20;99.90
4787;DHT22;62338;48.832;9.422;2023-07-30T12:33:49;23.60;99.90
4787;DHT22;62338;48.832;9.422;2023-07-30T12:35:51;23.80;99.90
4787;DHT22;62338;48.832;9.422;2023-07-30T12:37:54;23.50;99.90
4787;DHT22;62338;48.832;9.422;2023-07-30T12:39:56;23.40;99.90
4787;DHT22;62338;48.832;9.422;2023-07-30T12:41:58;23.10;99.90
4787;DHT22;62338;48.832;9.422;2023-07-30T12:44:00;22.60;99.90
4787;DHT22;62338;48.832;9.422;2023-07-30T12:46:02;23.10;99.90
4787;DHT22;62338;48.832;9.422;2023-07-30T12:48:04;23.70;99.90
4787;DHT22;62338;48.832;9.422;2023-07-30T12:50:08;24.10;99.90
4787;DHT22;62338;48.832;9.422;2023-07-30T12:52:10;24.30;99.90
4787;DHT22;62338;48.832;9.422;2023-07-30T12:54:12;24.00;99.90
4787;DHT22;62338;48.832;9.422;2023-07-30T12:56:14;23.70;99.90
4787;DHT22;62338;48.832;9.422;2023-07-30T12:58:16;23.90;99.90
4787;DHT22;62338;48.832;9.422;2023-07-30T13:00:18;24.20;99.90
4787;DHT22;62338;48.832;9.422;2023-07-30T13:02:20;23.40;99.90
4787;DHT22;62338;48.832;9.422;2023-07-30T13:04:24;23.00;99.90
4787;DHT22;62338;48.832;9.422;2023-07-30T13:06:29;23.40;99.90
4787;DHT22;62338;48.832;9.422;2023-07-30T13:08:31;23.40;99.90
4787;DHT22;62338;48.832;9.422;2023-07-30T13:10:33;23.20;99.90